KPCD/PCD METAR and TAF weather

Enter ICAO airport designator
Station Type Date Time Source
KPCD METAR 2020/01/20 21:55 UTC NOAA

KPCD 202155Z AUTO 35006KT 10SM SCT048 BKN060 OVC080 M04/M08 A3061 RMK AO2 T10431085


Station Type Date Time Source
KPCD Decoded METAR 2020/01/20 21:55 UTC NOAA

Station name not available
Jan 20, 2020 - 04:55 PM EST / 2020.01.20 2155 UTC
Wind: from the N (350 degrees) at 7 MPH (6 KT):0
Visibility: 10 mile(s):0
Sky conditions: overcast
Temperature: 24.3 F (-4.3 C)
Windchill: 15 F (-9 C):1
Dew Point: 16.7 F (-8.5 C)
Relative Humidity: 72%
Pressure (altimeter): 30.61 in. Hg (1036 hPa)
ob: KPCD 202155Z AUTO 35006KT 10SM SCT048 BKN060 OVC080 M04/M08 A3061 RMK AO2 T10431085
cycle: 22

Station Type Date Time Source
KPCD TAF UTC NOAA

Error!

Example: see airport list